sensor_id;sensor_type;location;lat;lon;timestamp;P1;durP1;ratioP1;P2;durP2;ratioP2
61840;SDS011;47773;53.174;6.614;2023-04-05T00:01:23;8.77;;;4.10;;
61840;SDS011;47773;53.174;6.614;2023-04-05T00:03:54;10.00;;;3.78;;
61840;SDS011;47773;53.174;6.614;2023-04-05T00:06:21;7.85;;;3.10;;
61840;SDS011;47773;53.174;6.614;2023-04-05T00:08:53;8.70;;;3.67;;
61840;SDS011;47773;53.174;6.614;2023-04-05T00:11:23;7.15;;;3.50;;
61840;SDS011;47773;53.174;6.614;2023-04-05T00:13:53;11.65;;;4.03;;
61840;SDS011;47773;53.174;6.614;2023-04-05T00:16:19;11.90;;;4.03;;
61840;SDS011;47773;53.174;6.614;2023-04-05T00:18:45;9.15;;;3.65;;
61840;SDS011;47773;53.174;6.614;2023-04-05T00:21:16;9.93;;;3.58;;
61840;SDS011;47773;53.174;6.614;2023-04-05T00:23:46;9.05;;;4.10;;
61840;SDS011;47773;53.174;6.614;2023-04-05T00:26:16;9.25;;;3.83;;
61840;SDS011;47773;53.174;6.614;2023-04-05T00:28:42;6.03;;;3.28;;
61840;SDS011;47773;53.174;6.614;2023-04-05T00:31:08;6.63;;;3.47;;
61840;SDS011;47773;53.174;6.614;2023-04-05T00:33:34;8.23;;;3.63;;
61840;SDS011;47773;53.174;6.614;2023-04-05T00:36:10;9.98;;;3.78;;
61840;SDS011;47773;53.174;6.614;2023-04-05T00:38:36;7.68;;;4.00;;
61840;SDS011;47773;53.174;6.614;2023-04-05T00:41:03;11.23;;;3.85;;
61840;SDS011;47773;53.174;6.614;2023-04-05T00:43:28;7.95;;;3.78;;
61840;SDS011;47773;53.174;6.614;2023-04-05T00:45:55;10.02;;;3.92;;
61840;SDS011;47773;53.174;6.614;2023-04-05T00:48:21;8.82;;;4.30;;
61840;SDS011;47773;53.174;6.614;2023-04-05T00:50:48;9.98;;;4.32;;
61840;SDS011;47773;53.174;6.614;2023-04-05T00:53:18;9.00;;;3.95;;
61840;SDS011;47773;53.174;6.614;2023-04-05T00:55:48;15.85;;;3.95;;
61840;SDS011;47773;53.174;6.614;2023-04-05T00:58:15;10.65;;;4.10;;
61840;SDS011;47773;53.174;6.614;2023-04-05T01:01:29;8.02;;;3.75;;
61840;SDS011;47773;53.174;6.614;2023-04-05T01:03:44;10.48;;;3.78;;
61840;SDS011;47773;53.174;6.614;2023-04-05T01:08:59;11.23;;;4.32;;
61840;SDS011;47773;53.174;6.614;2023-04-05T01:11:30;7.88;;;3.90;;
61840;SDS011;47773;53.174;6.614;2023-04-05T01:13:59;8.13;;;3.88;;
61840;SDS011;47773;53.174;6.614;2023-04-05T01:16:26;8.75;;;3.97;;
61840;SDS011;47773;53.174;6.614;2023-04-05T01:18:53;8.13;;;4.20;;
61840;SDS011;47773;53.174;6.614;2023-04-05T01:25:28;11.55;;;4.07;;
61840;SDS011;47773;53.174;6.614;2023-04-05T01:28:00;6.90;;;3.97;;
61840;SDS011;47773;53.174;6.614;2023-04-05T01:33:53;7.78;;;3.90;;
61840;SDS011;47773;53.174;6.614;2023-04-05T01:36:29;8.10;;;4.40;;
61840;SDS011;47773;53.174;6.614;2023-04-05T01:39:04;8.00;;;4.43;;
61840;SDS011;47773;53.174;6.614;2023-04-05T01:41:33;10.95;;;4.30;;
61840;SDS011;47773;53.174;6.614;2023-04-05T01:43:59;9.15;;;4.72;;
61840;SDS011;47773;53.174;6.614;2023-04-05T01:46:24;8.50;;;4.28;;
61840;SDS011;47773;53.174;6.614;2023-04-05T01:48:51;9.68;;;4.50;;
61840;SDS011;47773;53.174;6.614;2023-04-05T01:51:17;8.23;;;4.25;;
61840;SDS011;47773;53.174;6.614;2023-04-05T01:53:44;10.27;;;4.53;;
61840;SDS011;47773;53.174;6.614;2023-04-05T01:56:09;10.63;;;5.05;;
61840;SDS011;47773;53.174;6.614;2023-04-05T01:58:35;13.50;;;4.45;;
61840;SDS011;47773;53.174;6.614;2023-04-05T02:01:00;13.25;;;4.55;;
61840;SDS011;47773;53.174;6.614;2023-04-05T02:03:26;9.73;;;4.50;;
61840;SDS011;47773;53.174;6.614;2023-04-05T02:05:53;8.80;;;4.85;;
61840;SDS011;47773;53.174;6.614;2023-04-05T02:08:19;11.63;;;4.65;;
61840;SDS011;47773;53.174;6.614;2023-04-05T02:10:44;11.07;;;4.80;;
61840;SDS011;47773;53.174;6.614;2023-04-05T02:13:10;11.35;;;4.75;;
61840;SDS011;47773;53.174;6.614;2023-04-05T02:15:37;10.00;;;4.70;;
61840;SDS011;47773;53.174;6.614;2023-04-05T02:18:03;9.73;;;4.80;;
61840;SDS011;47773;53.174;6.614;2023-04-05T02:20:29;12.68;;;5.22;;
61840;SDS011;47773;53.174;6.614;2023-04-05T02:22:55;11.88;;;5.50;;
61840;SDS011;47773;53.174;6.614;2023-04-05T02:25:22;11.05;;;5.22;;
61840;SDS011;47773;53.174;6.614;2023-04-05T02:27:48;9.68;;;4.90;;
61840;SDS011;47773;53.174;6.614;2023-04-05T02:30:14;9.48;;;5.20;;
61840;SDS011;47773;53.174;6.614;2023-04-05T02:32:39;13.60;;;5.25;;
61840;SDS011;47773;53.174;6.614;2023-04-05T02:35:11;15.32;;;5.22;;
61840;SDS011;47773;53.174;6.614;2023-04-05T02:37:37;9.02;;;4.63;;
61840;SDS011;47773;53.174;6.614;2023-04-05T02:40:06;14.55;;;5.15;;
61840;SDS011;47773;53.174;6.614;2023-04-05T02:42:33;10.70;;;5.10;;
61840;SDS011;47773;53.174;6.614;2023-04-05T02:45:00;10.98;;;5.50;;
61840;SDS011;47773;53.174;6.614;2023-04-05T02:47:26;12.00;;;5.00;;
61840;SDS011;47773;53.174;6.614;2023-04-05T02:49:52;12.57;;;5.32;;
61840;SDS011;47773;53.174;6.614;2023-04-05T02:52:17;11.35;;;5.18;;
61840;SDS011;47773;53.174;6.614;2023-04-05T02:54:43;16.67;;;5.55;;
61840;SDS011;47773;53.174;6.614;2023-04-05T02:57:11;14.63;;;6.05;;
61840;SDS011;47773;53.174;6.614;2023-04-05T02:59:38;11.48;;;5.80;;
61840;SDS011;47773;53.174;6.614;2023-04-05T03:02:04;12.13;;;5.70;;
61840;SDS011;47773;53.174;6.614;2023-04-05T03:04:30;11.27;;;5.55;;
61840;SDS011;47773;53.174;6.614;2023-04-05T03:07:01;11.48;;;6.07;;
61840;SDS011;47773;53.174;6.614;2023-04-05T03:09:28;11.20;;;5.90;;
61840;SDS011;47773;53.174;6.614;2023-04-05T03:12:00;13.70;;;6.30;;
61840;SDS011;47773;53.174;6.614;2023-04-05T03:14:27;13.00;;;6.22;;
61840;SDS011;47773;53.174;6.614;2023-04-05T03:16:57;11.25;;;5.50;;
61840;SDS011;47773;53.174;6.614;2023-04-05T03:19:23;11.30;;;6.10;;
61840;SDS011;47773;53.174;6.614;2023-04-05T03:21:50;11.52;;;5.57;;
61840;SDS011;47773;53.174;6.614;2023-04-05T03:24:17;10.95;;;5.68;;
61840;SDS011;47773;53.174;6.614;2023-04-05T03:26:44;11.25;;;5.68;;
61840;SDS011;47773;53.174;6.614;2023-04-05T03:29:10;11.68;;;5.72;;
61840;SDS011;47773;53.174;6.614;2023-04-05T03:31:36;11.40;;;5.57;;
61840;SDS011;47773;53.174;6.614;2023-04-05T03:34:02;15.25;;;5.30;;
61840;SDS011;47773;53.174;6.614;2023-04-05T03:36:27;11.80;;;5.55;;
61840;SDS011;47773;53.174;6.614;2023-04-05T03:38:54;13.95;;;5.90;;
61840;SDS011;47773;53.174;6.614;2023-04-05T03:41:21;12.93;;;5.65;;
61840;SDS011;47773;53.174;6.614;2023-04-05T03:43:47;14.70;;;6.30;;
61840;SDS011;47773;53.174;6.614;2023-04-05T03:46:13;11.85;;;5.90;;
61840;SDS011;47773;53.174;6.614;2023-04-05T03:48:39;11.55;;;5.93;;
61840;SDS011;47773;53.174;6.614;2023-04-05T03:51:05;12.45;;;5.80;;
61840;SDS011;47773;53.174;6.614;2023-04-05T03:53:32;11.85;;;6.07;;
61840;SDS011;47773;53.174;6.614;2023-04-05T03:55:57;13.07;;;6.38;;
61840;SDS011;47773;53.174;6.614;2023-04-05T03:58:26;11.98;;;5.88;;
61840;SDS011;47773;53.174;6.614;2023-04-05T04:00:52;17.55;;;6.38;;
61840;SDS011;47773;53.174;6.614;2023-04-05T04:03:20;15.48;;;6.30;;
61840;SDS011;47773;53.174;6.614;2023-04-05T04:05:45;13.38;;;6.82;;
61840;SDS011;47773;53.174;6.614;2023-04-05T04:08:11;14.88;;;6.85;;
61840;SDS011;47773;53.174;6.614;2023-04-05T04:10:37;14.38;;;7.03;;
61840;SDS011;47773;53.174;6.614;2023-04-05T04:13:03;12.82;;;6.57;;
61840;SDS011;47773;53.174;6.614;2023-04-05T04:15:28;13.13;;;6.60;;
61840;SDS011;47773;53.174;6.614;2023-04-05T04:17:55;10.77;;;5.85;;
61840;SDS011;47773;53.174;6.614;2023-04-05T04:20:21;11.65;;;5.93;;
61840;SDS011;47773;53.174;6.614;2023-04-05T04:22:47;13.73;;;6.22;;
61840;SDS011;47773;53.174;6.614;2023-04-05T04:25:13;13.27;;;6.55;;
61840;SDS011;47773;53.174;6.614;2023-04-05T04:27:42;11.70;;;6.60;;
61840;SDS011;47773;53.174;6.614;2023-04-05T04:30:09;14.07;;;7.20;;
61840;SDS011;47773;53.174;6.614;2023-04-05T04:32:37;14.40;;;7.03;;
61840;SDS011;47773;53.174;6.614;2023-04-05T04:35:16;12.27;;;6.72;;
61840;SDS011;47773;53.174;6.614;2023-04-05T04:38:04;13.70;;;6.93;;
61840;SDS011;47773;53.174;6.614;2023-04-05T04:43:18;14.70;;;6.95;;
61840;SDS011;47773;53.174;6.614;2023-04-05T04:45:50;12.95;;;7.43;;
61840;SDS011;47773;53.174;6.614;2023-04-05T04:48:18;12.23;;;7.10;;
61840;SDS011;47773;53.174;6.614;2023-04-05T04:50:45;16.02;;;6.97;;
61840;SDS011;47773;53.174;6.614;2023-04-05T04:53:12;18.85;;;7.43;;
61840;SDS011;47773;53.174;6.614;2023-04-05T04:55:41;14.52;;;7.57;;
61840;SDS011;47773;53.174;6.614;2023-04-05T04:58:07;16.40;;;7.25;;
61840;SDS011;47773;53.174;6.614;2023-04-05T05:00:38;11.35;;;6.88;;
61840;SDS011;47773;53.174;6.614;2023-04-05T05:03:06;15.65;;;7.55;;
61840;SDS011;47773;53.174;6.614;2023-04-05T05:05:32;12.55;;;6.65;;
61840;SDS011;47773;53.174;6.614;2023-04-05T05:07:58;14.52;;;7.93;;
61840;SDS011;47773;53.174;6.614;2023-04-05T05:10:24;12.30;;;7.13;;
61840;SDS011;47773;53.174;6.614;2023-04-05T05:12:50;15.27;;;8.50;;
61840;SDS011;47773;53.174;6.614;2023-04-05T05:15:16;15.38;;;8.15;;
61840;SDS011;47773;53.174;6.614;2023-04-05T05:17:41;15.50;;;7.60;;
61840;SDS011;47773;53.174;6.614;2023-04-05T05:20:08;19.33;;;7.72;;
61840;SDS011;47773;53.174;6.614;2023-04-05T05:22:39;15.90;;;8.02;;
61840;SDS011;47773;53.174;6.614;2023-04-05T05:25:05;17.52;;;8.10;;
61840;SDS011;47773;53.174;6.614;2023-04-05T05:27:32;16.25;;;8.23;;
61840;SDS011;47773;53.174;6.614;2023-04-05T05:29:58;14.77;;;8.18;;
61840;SDS011;47773;53.174;6.614;2023-04-05T05:32:24;13.38;;;7.70;;
61840;SDS011;47773;53.174;6.614;2023-04-05T05:34:49;18.55;;;8.55;;
61840;SDS011;47773;53.174;6.614;2023-04-05T05:37:15;22.80;;;9.02;;
61840;SDS011;47773;53.174;6.614;2023-04-05T05:39:41;17.45;;;8.45;;
61840;SDS011;47773;53.174;6.614;2023-04-05T05:42:09;13.75;;;7.90;;
61840;SDS011;47773;53.174;6.614;2023-04-05T05:44:34;13.32;;;8.15;;
61840;SDS011;47773;53.174;6.614;2023-04-05T05:47:00;14.32;;;8.93;;
61840;SDS011;47773;53.174;6.614;2023-04-05T05:49:27;17.30;;;9.45;;
61840;SDS011;47773;53.174;6.614;2023-04-05T05:51:53;18.75;;;9.60;;
61840;SDS011;47773;53.174;6.614;2023-04-05T05:54:19;22.13;;;9.73;;
61840;SDS011;47773;53.174;6.614;2023-04-05T05:56:44;18.60;;;10.05;;
61840;SDS011;47773;53.174;6.614;2023-04-05T05:59:10;20.40;;;10.98;;
61840;SDS011;47773;53.174;6.614;2023-04-05T06:01:36;16.20;;;10.30;;
61840;SDS011;47773;53.174;6.614;2023-04-05T06:04:05;16.63;;;8.60;;
61840;SDS011;47773;53.174;6.614;2023-04-05T06:06:31;18.20;;;8.73;;
61840;SDS011;47773;53.174;6.614;2023-04-05T06:08:59;15.85;;;8.70;;
61840;SDS011;47773;53.174;6.614;2023-04-05T06:11:24;16.23;;;9.20;;
61840;SDS011;47773;53.174;6.614;2023-04-05T06:13:50;16.92;;;9.32;;
61840;SDS011;47773;53.174;6.614;2023-04-05T06:16:19;16.73;;;9.05;;
61840;SDS011;47773;53.174;6.614;2023-04-05T06:18:45;16.85;;;8.95;;
61840;SDS011;47773;53.174;6.614;2023-04-05T06:21:11;17.60;;;9.63;;
61840;SDS011;47773;53.174;6.614;2023-04-05T06:23:37;23.25;;;10.23;;
61840;SDS011;47773;53.174;6.614;2023-04-05T06:26:05;21.75;;;10.70;;
61840;SDS011;47773;53.174;6.614;2023-04-05T06:28:30;19.13;;;10.55;;
61840;SDS011;47773;53.174;6.614;2023-04-05T06:30:57;21.13;;;10.52;;
61840;SDS011;47773;53.174;6.614;2023-04-05T06:33:23;19.33;;;10.77;;
61840;SDS011;47773;53.174;6.614;2023-04-05T06:35:49;22.35;;;11.02;;
61840;SDS011;47773;53.174;6.614;2023-04-05T06:38:15;17.88;;;10.23;;
61840;SDS011;47773;53.174;6.614;2023-04-05T06:40:41;17.77;;;9.77;;
61840;SDS011;47773;53.174;6.614;2023-04-05T06:43:07;16.42;;;10.25;;
61840;SDS011;47773;53.174;6.614;2023-04-05T06:45:34;19.27;;;10.18;;
61840;SDS011;47773;53.174;6.614;2023-04-05T06:48:00;21.20;;;9.93;;
61840;SDS011;47773;53.174;6.614;2023-04-05T06:50:26;18.67;;;9.82;;
61840;SDS011;47773;53.174;6.614;2023-04-05T06:52:51;18.02;;;10.20;;
61840;SDS011;47773;53.174;6.614;2023-04-05T06:55:17;15.15;;;9.68;;
61840;SDS011;47773;53.174;6.614;2023-04-05T06:57:42;20.90;;;9.73;;
61840;SDS011;47773;53.174;6.614;2023-04-05T07:00:08;18.05;;;9.55;;
61840;SDS011;47773;53.174;6.614;2023-04-05T07:02:36;20.67;;;9.75;;
61840;SDS011;47773;53.174;6.614;2023-04-05T07:05:02;15.77;;;8.93;;
61840;SDS011;47773;53.174;6.614;2023-04-05T07:07:32;19.25;;;9.00;;
61840;SDS011;47773;53.174;6.614;2023-04-05T07:09:58;18.55;;;9.38;;
61840;SDS011;47773;53.174;6.614;2023-04-05T07:12:24;13.90;;;9.43;;
61840;SDS011;47773;53.174;6.614;2023-04-05T07:14:50;18.98;;;9.57;;
61840;SDS011;47773;53.174;6.614;2023-04-05T07:17:15;19.27;;;9.90;;
61840;SDS011;47773;53.174;6.614;2023-04-05T07:19:41;14.80;;;9.40;;
61840;SDS011;47773;53.174;6.614;2023-04-05T07:22:07;14.85;;;9.32;;
61840;SDS011;47773;53.174;6.614;2023-04-05T07:24:33;15.48;;;9.48;;
61840;SDS011;47773;53.174;6.614;2023-04-05T07:26:59;15.15;;;10.20;;
61840;SDS011;47773;53.174;6.614;2023-04-05T07:29:26;19.17;;;9.95;;
61840;SDS011;47773;53.174;6.614;2023-04-05T07:31:52;15.85;;;9.68;;
61840;SDS011;47773;53.174;6.614;2023-04-05T07:34:17;16.38;;;9.70;;
61840;SDS011;47773;53.174;6.614;2023-04-05T07:36:43;14.52;;;9.27;;
61840;SDS011;47773;53.174;6.614;2023-04-05T07:39:09;16.65;;;10.02;;
61840;SDS011;47773;53.174;6.614;2023-04-05T07:41:34;16.80;;;9.80;;
61840;SDS011;47773;53.174;6.614;2023-04-05T07:44:01;15.85;;;10.02;;
61840;SDS011;47773;53.174;6.614;2023-04-05T07:46:26;16.75;;;9.75;;
61840;SDS011;47773;53.174;6.614;2023-04-05T07:48:52;13.70;;;9.60;;
61840;SDS011;47773;53.174;6.614;2023-04-05T07:51:18;15.38;;;9.30;;
61840;SDS011;47773;53.174;6.614;2023-04-05T07:53:44;16.20;;;9.55;;
61840;SDS011;47773;53.174;6.614;2023-04-05T07:56:09;16.20;;;9.70;;
61840;SDS011;47773;53.174;6.614;2023-04-05T07:58:36;15.57;;;9.38;;
61840;SDS011;47773;53.174;6.614;2023-04-05T08:01:06;17.35;;;9.88;;
61840;SDS011;47773;53.174;6.614;2023-04-05T08:03:34;15.20;;;9.20;;
61840;SDS011;47773;53.174;6.614;2023-04-05T08:06:12;16.58;;;9.55;;
61840;SDS011;47773;53.174;6.614;2023-04-05T08:08:39;14.73;;;9.18;;
61840;SDS011;47773;53.174;6.614;2023-04-05T08:11:05;14.73;;;8.70;;
61840;SDS011;47773;53.174;6.614;2023-04-05T08:13:31;14.35;;;8.57;;
61840;SDS011;47773;53.174;6.614;2023-04-05T08:15:58;15.30;;;9.00;;
61840;SDS011;47773;53.174;6.614;2023-04-05T08:18:27;12.88;;;8.50;;
61840;SDS011;47773;53.174;6.614;2023-04-05T08:20:53;11.57;;;7.78;;
61840;SDS011;47773;53.174;6.614;2023-04-05T08:23:20;14.45;;;7.55;;
61840;SDS011;47773;53.174;6.614;2023-04-05T08:25:46;10.55;;;7.03;;
61840;SDS011;47773;53.174;6.614;2023-04-05T08:28:12;11.80;;;7.20;;
61840;SDS011;47773;53.174;6.614;2023-04-05T08:30:38;13.10;;;7.78;;
61840;SDS011;47773;53.174;6.614;2023-04-05T08:33:04;14.15;;;7.93;;
61840;SDS011;47773;53.174;6.614;2023-04-05T08:35:30;10.13;;;7.10;;
61840;SDS011;47773;53.174;6.614;2023-04-05T08:37:56;15.77;;;7.15;;
61840;SDS011;47773;53.174;6.614;2023-04-05T08:40:23;10.43;;;5.68;;
61840;SDS011;47773;53.174;6.614;2023-04-05T08:43:07;10.38;;;7.07;;
61840;SDS011;47773;53.174;6.614;2023-04-05T08:45:43;13.35;;;6.93;;
61840;SDS011;47773;53.174;6.614;2023-04-05T08:48:14;16.20;;;7.20;;
61840;SDS011;47773;53.174;6.614;2023-04-05T08:50:41;10.75;;;5.82;;
61840;SDS011;47773;53.174;6.614;2023-04-05T08:53:06;9.77;;;6.10;;
61840;SDS011;47773;53.174;6.614;2023-04-05T08:55:38;10.55;;;5.57;;
61840;SDS011;47773;53.174;6.614;2023-04-05T08:58:06;13.45;;;5.55;;
61840;SDS011;47773;53.174;6.614;2023-04-05T09:00:36;9.98;;;4.82;;
61840;SDS011;47773;53.174;6.614;2023-04-05T09:03:03;9.77;;;5.70;;
61840;SDS011;47773;53.174;6.614;2023-04-05T09:05:32;12.38;;;5.50;;
61840;SDS011;47773;53.174;6.614;2023-04-05T09:08:03;9.75;;;5.32;;
61840;SDS011;47773;53.174;6.614;2023-04-05T09:10:30;13.15;;;5.78;;
61840;SDS011;47773;53.174;6.614;2023-04-05T09:12:56;10.98;;;5.43;;
61840;SDS011;47773;53.174;6.614;2023-04-05T09:15:23;11.65;;;5.70;;
61840;SDS011;47773;53.174;6.614;2023-04-05T09:17:51;13.02;;;6.15;;
61840;SDS011;47773;53.174;6.614;2023-04-05T09:20:18;11.25;;;6.22;;
61840;SDS011;47773;53.174;6.614;2023-04-05T09:22:44;12.32;;;5.95;;
61840;SDS011;47773;53.174;6.614;2023-04-05T09:25:56;13.27;;;5.93;;
61840;SDS011;47773;53.174;6.614;2023-04-05T09:27:58;13.65;;;6.10;;
61840;SDS011;47773;53.174;6.614;2023-04-05T09:30:24;14.75;;;5.85;;
61840;SDS011;47773;53.174;6.614;2023-04-05T09:32:52;12.82;;;5.53;;
61840;SDS011;47773;53.174;6.614;2023-04-05T09:35:22;8.50;;;4.82;;
61840;SDS011;47773;53.174;6.614;2023-04-05T09:37:55;10.70;;;5.32;;
61840;SDS011;47773;53.174;6.614;2023-04-05T09:40:44;12.43;;;6.68;;
61840;SDS011;47773;53.174;6.614;2023-04-05T09:43:11;7.13;;;4.50;;
61840;SDS011;47773;53.174;6.614;2023-04-05T09:45:41;9.27;;;4.75;;
61840;SDS011;47773;53.174;6.614;2023-04-05T09:48:07;8.77;;;5.10;;
61840;SDS011;47773;53.174;6.614;2023-04-05T09:50:34;10.55;;;4.60;;
61840;SDS011;47773;53.174;6.614;2023-04-05T09:53:07;10.55;;;4.22;;
61840;SDS011;47773;53.174;6.614;2023-04-05T09:55:34;9.00;;;4.75;;
61840;SDS011;47773;53.174;6.614;2023-04-05T09:58:01;10.20;;;4.60;;
61840;SDS011;47773;53.174;6.614;2023-04-05T10:00:27;9.18;;;4.00;;
61840;SDS011;47773;53.174;6.614;2023-04-05T10:02:54;7.32;;;3.72;;
61840;SDS011;47773;53.174;6.614;2023-04-05T10:05:23;7.47;;;4.03;;
61840;SDS011;47773;53.174;6.614;2023-04-05T10:07:51;7.70;;;4.00;;
61840;SDS011;47773;53.174;6.614;2023-04-05T10:10:19;9.88;;;5.07;;
61840;SDS011;47773;53.174;6.614;2023-04-05T10:12:46;10.82;;;5.53;;
61840;SDS011;47773;53.174;6.614;2023-04-05T10:15:13;10.75;;;5.00;;
61840;SDS011;47773;53.174;6.614;2023-04-05T10:18:01;10.75;;;5.93;;
61840;SDS011;47773;53.174;6.614;2023-04-05T10:20:32;8.75;;;5.45;;
61840;SDS011;47773;53.174;6.614;2023-04-05T10:23:06;7.10;;;4.70;;
61840;SDS011;47773;53.174;6.614;2023-04-05T10:34:11;9.02;;;5.25;;
61840;SDS011;47773;53.174;6.614;2023-04-05T10:36:55;11.75;;;5.38;;
61840;SDS011;47773;53.174;6.614;2023-04-05T10:39:25;7.90;;;4.85;;
61840;SDS011;47773;53.174;6.614;2023-04-05T10:42:20;8.45;;;4.80;;
61840;SDS011;47773;53.174;6.614;2023-04-05T10:44:57;8.88;;;5.00;;
61840;SDS011;47773;53.174;6.614;2023-04-05T10:47:26;7.97;;;4.45;;
61840;SDS011;47773;53.174;6.614;2023-04-05T10:49:55;8.63;;;4.55;;
61840;SDS011;47773;53.174;6.614;2023-04-05T10:52:24;7.68;;;4.95;;
61840;SDS011;47773;53.174;6.614;2023-04-05T10:54:50;7.80;;;4.60;;
61840;SDS011;47773;53.174;6.614;2023-04-05T10:57:17;9.38;;;5.00;;
61840;SDS011;47773;53.174;6.614;2023-04-05T10:59:45;8.85;;;5.20;;
61840;SDS011;47773;53.174;6.614;2023-04-05T11:02:12;10.10;;;5.13;;
61840;SDS011;47773;53.174;6.614;2023-04-05T11:04:38;8.73;;;4.95;;
61840;SDS011;47773;53.174;6.614;2023-04-05T11:07:11;9.05;;;5.35;;
61840;SDS011;47773;53.174;6.614;2023-04-05T11:23:09;10.38;;;4.60;;
61840;SDS011;47773;53.174;6.614;2023-04-05T11:25:37;9.88;;;5.28;;
61840;SDS011;47773;53.174;6.614;2023-04-05T11:28:04;8.45;;;4.50;;
61840;SDS011;47773;53.174;6.614;2023-04-05T11:30:46;8.43;;;4.90;;
61840;SDS011;47773;53.174;6.614;2023-04-05T11:36:00;7.68;;;4.85;;
61840;SDS011;47773;53.174;6.614;2023-04-05T11:38:27;9.98;;;5.50;;
61840;SDS011;47773;53.174;6.614;2023-04-05T11:41:03;10.80;;;5.13;;
61840;SDS011;47773;53.174;6.614;2023-04-05T11:43:37;7.97;;;4.70;;
61840;SDS011;47773;53.174;6.614;2023-04-05T11:46:03;7.63;;;4.57;;
61840;SDS011;47773;53.174;6.614;2023-04-05T11:48:31;7.88;;;4.82;;
61840;SDS011;47773;53.174;6.614;2023-04-05T11:50:58;8.20;;;4.90;;
61840;SDS011;47773;53.174;6.614;2023-04-05T11:53:24;8.18;;;4.93;;
61840;SDS011;47773;53.174;6.614;2023-04-05T11:55:50;7.47;;;4.63;;
61840;SDS011;47773;53.174;6.614;2023-04-05T11:58:19;8.30;;;4.90;;
61840;SDS011;47773;53.174;6.614;2023-04-05T12:00:55;11.35;;;4.78;;
61840;SDS011;47773;53.174;6.614;2023-04-05T12:03:25;9.10;;;4.40;;
61840;SDS011;47773;53.174;6.614;2023-04-05T12:05:56;9.65;;;5.00;;
61840;SDS011;47773;53.174;6.614;2023-04-05T12:08:23;11.93;;;5.07;;
61840;SDS011;47773;53.174;6.614;2023-04-05T12:11:01;10.35;;;4.93;;
61840;SDS011;47773;53.174;6.614;2023-04-05T12:13:27;10.40;;;4.68;;
61840;SDS011;47773;53.174;6.614;2023-04-05T12:15:58;8.65;;;5.07;;
61840;SDS011;47773;53.174;6.614;2023-04-05T12:18:25;9.43;;;4.85;;
61840;SDS011;47773;53.174;6.614;2023-04-05T12:20:52;7.88;;;4.55;;
61840;SDS011;47773;53.174;6.614;2023-04-05T12:23:18;7.88;;;4.82;;
61840;SDS011;47773;53.174;6.614;2023-04-05T12:25:46;7.93;;;4.63;;
61840;SDS011;47773;53.174;6.614;2023-04-05T12:28:13;7.70;;;4.68;;
61840;SDS011;47773;53.174;6.614;2023-04-05T12:30:48;6.78;;;4.70;;
61840;SDS011;47773;53.174;6.614;2023-04-05T12:33:30;9.02;;;4.80;;
61840;SDS011;47773;53.174;6.614;2023-04-05T12:36:04;9.10;;;4.60;;
61840;SDS011;47773;53.174;6.614;2023-04-05T12:38:30;13.63;;;5.03;;
61840;SDS011;47773;53.174;6.614;2023-04-05T12:40:59;8.27;;;4.93;;
61840;SDS011;47773;53.174;6.614;2023-04-05T12:43:39;6.82;;;4.43;;
61840;SDS011;47773;53.174;6.614;2023-04-05T12:46:09;10.00;;;5.22;;
61840;SDS011;47773;53.174;6.614;2023-04-05T12:48:36;7.57;;;4.50;;
61840;SDS011;47773;53.174;6.614;2023-04-05T12:51:02;11.63;;;4.50;;
61840;SDS011;47773;53.174;6.614;2023-04-05T12:53:29;6.72;;;4.70;;
61840;SDS011;47773;53.174;6.614;2023-04-05T12:55:55;8.55;;;4.38;;
61840;SDS011;47773;53.174;6.614;2023-04-05T12:58:26;8.50;;;4.97;;
61840;SDS011;47773;53.174;6.614;2023-04-05T13:00:58;9.27;;;4.82;;
61840;SDS011;47773;53.174;6.614;2023-04-05T13:03:24;7.47;;;4.70;;
61840;SDS011;47773;53.174;6.614;2023-04-05T13:05:51;9.20;;;4.38;;
61840;SDS011;47773;53.174;6.614;2023-04-05T13:08:16;12.38;;;4.75;;
61840;SDS011;47773;53.174;6.614;2023-04-05T13:10:43;8.23;;;4.32;;
61840;SDS011;47773;53.174;6.614;2023-04-05T13:13:10;9.68;;;4.50;;
61840;SDS011;47773;53.174;6.614;2023-04-05T13:15:37;9.20;;;4.65;;
61840;SDS011;47773;53.174;6.614;2023-04-05T13:18:03;7.40;;;4.03;;
61840;SDS011;47773;53.174;6.614;2023-04-05T13:20:29;10.10;;;4.43;;
61840;SDS011;47773;53.174;6.614;2023-04-05T13:22:55;7.15;;;4.40;;
61840;SDS011;47773;53.174;6.614;2023-04-05T13:25:21;8.07;;;4.07;;
61840;SDS011;47773;53.174;6.614;2023-04-05T13:27:47;8.40;;;4.50;;
61840;SDS011;47773;53.174;6.614;2023-04-05T13:30:13;7.22;;;4.32;;
61840;SDS011;47773;53.174;6.614;2023-04-05T13:32:39;9.02;;;4.38;;
61840;SDS011;47773;53.174;6.614;2023-04-05T13:35:05;8.50;;;4.15;;
61840;SDS011;47773;53.174;6.614;2023-04-05T13:37:32;9.85;;;4.00;;
61840;SDS011;47773;53.174;6.614;2023-04-05T13:39:57;8.32;;;4.03;;
61840;SDS011;47773;53.174;6.614;2023-04-05T13:42:23;6.40;;;3.58;;
61840;SDS011;47773;53.174;6.614;2023-04-05T13:44:49;8.60;;;4.05;;
61840;SDS011;47773;53.174;6.614;2023-04-05T13:47:15;7.97;;;4.15;;
61840;SDS011;47773;53.174;6.614;2023-04-05T13:49:41;6.30;;;4.25;;
61840;SDS011;47773;53.174;6.614;2023-04-05T13:52:07;7.13;;;4.15;;
61840;SDS011;47773;53.174;6.614;2023-04-05T13:54:33;10.65;;;4.43;;
61840;SDS011;47773;53.174;6.614;2023-04-05T13:56:58;7.32;;;4.25;;
61840;SDS011;47773;53.174;6.614;2023-04-05T13:59:24;8.20;;;4.28;;
61840;SDS011;47773;53.174;6.614;2023-04-05T14:01:50;5.93;;;4.00;;
61840;SDS011;47773;53.174;6.614;2023-04-05T14:04:16;10.20;;;4.43;;
61840;SDS011;47773;53.174;6.614;2023-04-05T14:06:42;9.98;;;4.40;;
61840;SDS011;47773;53.174;6.614;2023-04-05T14:09:08;12.23;;;4.30;;
61840;SDS011;47773;53.174;6.614;2023-04-05T14:11:34;7.32;;;4.20;;
61840;SDS011;47773;53.174;6.614;2023-04-05T14:14:00;7.03;;;4.13;;
61840;SDS011;47773;53.174;6.614;2023-04-05T14:16:26;9.90;;;4.80;;
61840;SDS011;47773;53.174;6.614;2023-04-05T14:18:52;8.35;;;4.07;;
61840;SDS011;47773;53.174;6.614;2023-04-05T14:21:18;6.65;;;3.83;;
61840;SDS011;47773;53.174;6.614;2023-04-05T14:23:44;7.07;;;4.10;;
61840;SDS011;47773;53.174;6.614;2023-04-05T14:26:10;8.52;;;4.28;;
61840;SDS011;47773;53.174;6.614;2023-04-05T14:28:36;6.55;;;4.35;;
61840;SDS011;47773;53.174;6.614;2023-04-05T14:31:02;7.10;;;3.88;;
61840;SDS011;47773;53.174;6.614;2023-04-05T14:33:28;10.35;;;4.35;;
61840;SDS011;47773;53.174;6.614;2023-04-05T14:35:53;11.43;;;4.05;;
61840;SDS011;47773;53.174;6.614;2023-04-05T14:38:19;11.05;;;4.18;;
61840;SDS011;47773;53.174;6.614;2023-04-05T14:40:45;6.35;;;4.18;;
61840;SDS011;47773;53.174;6.614;2023-04-05T14:43:11;7.97;;;4.40;;
61840;SDS011;47773;53.174;6.614;2023-04-05T14:45:36;7.38;;;4.00;;
61840;SDS011;47773;53.174;6.614;2023-04-05T14:48:02;9.05;;;4.25;;
61840;SDS011;47773;53.174;6.614;2023-04-05T14:50:28;10.32;;;4.43;;
61840;SDS011;47773;53.174;6.614;2023-04-05T14:52:57;8.30;;;4.30;;
61840;SDS011;47773;53.174;6.614;2023-04-05T14:55:23;14.90;;;4.22;;
61840;SDS011;47773;53.174;6.614;2023-04-05T14:57:49;7.55;;;4.57;;
61840;SDS011;47773;53.174;6.614;2023-04-05T15:00:15;9.52;;;4.90;;
61840;SDS011;47773;53.174;6.614;2023-04-05T15:02:41;12.32;;;4.72;;
61840;SDS011;47773;53.174;6.614;2023-04-05T15:05:07;8.50;;;4.60;;
61840;SDS011;47773;53.174;6.614;2023-04-05T15:07:33;7.18;;;4.28;;
61840;SDS011;47773;53.174;6.614;2023-04-05T15:09:58;6.22;;;4.38;;
61840;SDS011;47773;53.174;6.614;2023-04-05T15:12:24;9.27;;;4.13;;
61840;SDS011;47773;53.174;6.614;2023-04-05T15:14:50;7.70;;;4.20;;
61840;SDS011;47773;53.174;6.614;2023-04-05T15:17:18;11.63;;;4.45;;
61840;SDS011;47773;53.174;6.614;2023-04-05T15:19:44;7.43;;;4.82;;